createdAt,value
2023-01-07T00:01:16.965Z,87.64
2023-01-07T00:03:44.741Z,87.78
2023-01-07T00:06:23.194Z,87.90
2023-01-07T00:08:51.460Z,88.06
2023-01-07T00:11:20.894Z,88.75
2023-01-07T00:13:52.212Z,89.59
2023-01-07T00:16:21.138Z,89.76
2023-01-07T00:18:48.211Z,90.30
2023-01-07T00:21:16.771Z,90.89
2023-01-07T00:23:45.229Z,91.26
2023-01-07T00:26:14.270Z,91.57
2023-01-07T00:28:43.498Z,92.14
2023-01-07T00:31:14.251Z,92.48
2023-01-07T00:34:06.508Z,92.48
2023-01-07T00:36:42.792Z,92.25
2023-01-07T00:39:13.820Z,92.21
2023-01-07T00:41:40.297Z,92.01
2023-01-07T00:44:08.103Z,91.88
2023-01-07T00:46:34.604Z,91.82
2023-01-07T00:49:02.016Z,91.69
2023-01-07T00:51:28.509Z,91.93
2023-01-07T00:53:54.920Z,92.00
2023-01-07T00:56:21.392Z,91.88
2023-01-07T00:58:47.828Z,92.04
2023-01-07T01:01:14.381Z,92.03
2023-01-07T01:03:40.949Z,92.05
2023-01-07T01:06:16.632Z,92.74
2023-01-07T01:08:46.875Z,92.26
2023-01-07T01:11:14.297Z,92.44
2023-01-07T01:13:41.325Z,91.41
2023-01-07T01:16:10.528Z,91.50
2023-01-07T01:18:37.896Z,91.12
2023-01-07T01:21:06.313Z,90.93
2023-01-07T01:23:33.007Z,90.89
2023-01-07T01:26:04.406Z,90.87
2023-01-07T01:28:31.555Z,90.51
2023-01-07T01:30:57.929Z,90.80
2023-01-07T01:33:24.353Z,90.25
2023-01-07T01:35:50.868Z,90.11
2023-01-07T01:38:17.264Z,90.61
2023-01-07T01:40:43.689Z,90.74
2023-01-07T01:43:34.028Z,92.07
2023-01-07T01:46:20.696Z,91.14
2023-01-07T01:49:07.662Z,91.95
2023-01-07T01:51:38.756Z,92.03
2023-01-07T01:54:09.299Z,92.35
2023-01-07T01:56:41.004Z,92.84
2023-01-07T01:59:13.990Z,92.96
2023-01-07T02:01:40.889Z,93.03
2023-01-07T02:04:15.343Z,93.18
2023-01-07T02:06:46.633Z,93.46
2023-01-07T02:09:13.790Z,93.38
2023-01-07T02:11:56.272Z,94.00
2023-01-07T02:14:53.420Z,94.08
2023-01-07T02:17:29.697Z,93.62
2023-01-07T02:20:21.542Z,94.24
2023-01-07T02:23:21.743Z,94.04
2023-01-07T02:26:25.586Z,94.18
2023-01-07T02:29:20.058Z,94.16
2023-01-07T02:32:05.459Z,92.74
2023-01-07T02:35:02.903Z,93.11
2023-01-07T02:38:09.369Z,94.03
2023-01-07T02:40:50.345Z,93.51
2023-01-07T02:43:26.204Z,93.04
2023-01-07T02:46:10.252Z,93.85
2023-01-07T02:48:37.853Z,92.91
2023-01-07T02:51:04.337Z,92.64
2023-01-07T02:53:31.976Z,92.86
2023-01-07T02:56:28.716Z,93.46
2023-01-07T02:59:11.376Z,93.65
2023-01-07T03:01:37.792Z,93.28
2023-01-07T03:04:38.480Z,94.64
2023-01-07T03:07:13.645Z,93.85
2023-01-07T03:10:04.643Z,94.41
2023-01-07T03:13:04.310Z,94.82
2023-01-07T03:15:40.004Z,94.58
2023-01-07T03:18:13.264Z,94.45
2023-01-07T03:20:43.119Z,94.35
2023-01-07T03:23:13.916Z,94.46
2023-01-07T03:25:45.425Z,94.34
2023-01-07T03:28:17.477Z,94.71
2023-01-07T03:30:45.470Z,94.47
2023-01-07T03:33:16.618Z,94.43
2023-01-07T03:35:47.900Z,94.15
2023-01-07T03:38:16.943Z,94.12
2023-01-07T03:40:43.587Z,94.06
2023-01-07T03:43:14.360Z,94.70
2023-01-07T03:45:42.364Z,94.20
2023-01-07T03:48:08.888Z,94.13
2023-01-07T03:50:35.364Z,94.03
2023-01-07T03:53:01.856Z,93.77
2023-01-07T03:55:28.396Z,93.06
2023-01-07T03:57:55.886Z,93.37
2023-01-07T04:00:22.315Z,93.41
2023-01-07T04:02:48.721Z,93.71
2023-01-07T04:05:15.387Z,94.04
2023-01-07T04:07:42.058Z,94.67
2023-01-07T04:10:09.225Z,94.59
2023-01-07T04:12:36.210Z,94.84
2023-01-07T04:15:03.557Z,94.85
2023-01-07T04:17:30.220Z,94.76
2023-01-07T04:19:56.628Z,94.97
2023-01-07T04:22:23.053Z,95.13
2023-01-07T04:24:49.502Z,95.33
2023-01-07T04:27:17.336Z,95.28
2023-01-07T04:29:43.905Z,95.25
2023-01-07T04:32:10.326Z,95.17
2023-01-07T04:34:36.694Z,95.50
2023-01-07T04:37:03.109Z,95.48
2023-01-07T04:39:29.640Z,95.46
2023-01-07T04:41:56.053Z,95.36
2023-01-07T04:44:22.684Z,95.46
2023-01-07T04:46:49.086Z,95.57
2023-01-07T04:49:15.475Z,95.82
2023-01-07T04:51:41.954Z,95.63
2023-01-07T04:54:08.376Z,95.85
2023-01-07T04:56:34.774Z,95.79
2023-01-07T04:59:01.465Z,95.85
2023-01-07T05:01:30.882Z,95.93
2023-01-07T05:03:57.536Z,95.94
2023-01-07T05:06:24.277Z,95.96
2023-01-07T05:08:50.705Z,95.99
2023-01-07T05:11:21.569Z,96.07
2023-01-07T05:13:49.822Z,96.16
2023-01-07T05:16:17.263Z,96.10
2023-01-07T05:18:44.027Z,96.22
2023-01-07T05:21:11.004Z,96.25
2023-01-07T05:23:37.791Z,96.36
2023-01-07T05:26:04.267Z,96.31
2023-01-07T05:28:30.700Z,96.57
2023-01-07T05:30:57.137Z,96.59
2023-01-07T05:33:23.570Z,97.04
2023-01-07T05:35:49.972Z,97.34
2023-01-07T05:38:16.462Z,97.15
2023-01-07T05:40:43.312Z,97.21
2023-01-07T05:43:09.724Z,97.12
2023-01-07T05:45:36.135Z,97.25
2023-01-07T05:48:02.553Z,97.28
2023-01-07T05:50:29.226Z,97.72
2023-01-07T05:52:55.676Z,97.77
2023-01-07T05:55:22.189Z,97.30
2023-01-07T05:57:48.624Z,97.47
2023-01-07T06:00:15.378Z,97.13
2023-01-07T06:02:41.823Z,97.24
2023-01-07T06:05:08.993Z,97.00
2023-01-07T06:07:35.615Z,97.26
2023-01-07T06:10:03.249Z,97.42
2023-01-07T06:12:30.417Z,97.12
2023-01-07T06:14:56.928Z,97.13
2023-01-07T06:17:23.336Z,97.02
2023-01-07T06:19:49.842Z,97.02
2023-01-07T06:22:16.447Z,96.91
2023-01-07T06:24:42.877Z,97.08
2023-01-07T06:27:10.298Z,97.27
2023-01-07T06:29:36.800Z,97.07
2023-01-07T06:32:03.370Z,97.13
2023-01-07T06:34:30.089Z,97.17
2023-01-07T06:36:57.140Z,97.21
2023-01-07T06:39:23.701Z,97.14
2023-01-07T06:41:50.431Z,97.05
2023-01-07T06:44:16.846Z,96.94
2023-01-07T06:46:43.375Z,96.97
2023-01-07T06:49:10.010Z,97.07
2023-01-07T06:51:36.484Z,97.27
2023-01-07T06:54:03.269Z,97.12
2023-01-07T06:56:29.666Z,97.04
2023-01-07T06:58:56.123Z,96.92
2023-01-07T07:01:22.740Z,97.02
2023-01-07T07:03:49.235Z,97.11
2023-01-07T07:06:15.706Z,97.16
2023-01-07T07:08:42.167Z,97.28
2023-01-07T07:11:08.874Z,97.07
2023-01-07T07:13:35.318Z,96.93
2023-01-07T07:16:02.014Z,96.93
2023-01-07T07:18:28.479Z,96.71
2023-01-07T07:20:54.976Z,96.94
2023-01-07T07:23:21.378Z,97.03
2023-01-07T07:25:47.914Z,97.40
2023-01-07T07:28:14.409Z,97.29
2023-01-07T07:30:45.828Z,97.64
2023-01-07T07:33:15.117Z,97.38
2023-01-07T07:35:42.012Z,97.22
2023-01-07T07:38:08.462Z,97.27
2023-01-07T07:40:35.056Z,97.37
2023-01-07T07:43:10.549Z,97.35
2023-01-07T07:45:39.701Z,97.26
2023-01-07T07:48:07.571Z,97.19
2023-01-07T07:50:34.732Z,97.23
2023-01-07T07:53:01.471Z,97.01
2023-01-07T07:55:28.186Z,96.85
2023-01-07T07:57:55.643Z,96.82
2023-01-07T08:00:22.892Z,96.87
2023-01-07T08:02:49.431Z,96.55
2023-01-07T08:05:16.203Z,96.68
2023-01-07T08:07:42.924Z,96.46
2023-01-07T08:10:09.640Z,96.44
2023-01-07T08:12:40.005Z,96.60
2023-01-07T08:15:08.086Z,96.18
2023-01-07T08:17:36.172Z,95.88
2023-01-07T08:20:07.420Z,95.89
2023-01-07T08:22:34.349Z,95.84
2023-01-07T08:25:01.162Z,95.59
2023-01-07T08:27:28.174Z,95.46
2023-01-07T08:29:55.207Z,95.38
2023-01-07T08:32:22.215Z,95.12
2023-01-07T08:34:48.721Z,94.96
2023-01-07T08:37:15.264Z,94.65
2023-01-07T08:39:41.809Z,94.29
2023-01-07T08:42:08.324Z,94.48
2023-01-07T08:44:34.744Z,94.33
2023-01-07T08:47:01.796Z,94.33
2023-01-07T08:49:28.202Z,94.39
2023-01-07T08:51:54.617Z,94.08
2023-01-07T08:54:21.087Z,94.38
2023-01-07T08:56:47.475Z,94.22
2023-01-07T08:59:14.020Z,94.25
2023-01-07T09:01:40.591Z,94.25
2023-01-07T09:04:07.152Z,94.12
2023-01-07T09:06:33.557Z,93.86
2023-01-07T09:09:00.301Z,93.81
2023-01-07T09:11:26.779Z,93.70
2023-01-07T09:13:53.314Z,93.42
2023-01-07T09:16:19.778Z,93.10
2023-01-07T09:18:46.364Z,92.87
2023-01-07T09:21:12.822Z,92.48
2023-01-07T09:23:40.373Z,91.97
2023-01-07T09:26:06.863Z,91.81
2023-01-07T09:28:33.539Z,91.62
2023-01-07T09:31:00.774Z,91.45
2023-01-07T09:33:27.426Z,91.28
2023-01-07T09:35:53.892Z,90.71
2023-01-07T09:38:20.301Z,90.45
2023-01-07T09:40:47.672Z,90.08
2023-01-07T09:43:20.142Z,89.67
2023-01-07T09:45:52.931Z,89.72
2023-01-07T09:48:26.817Z,89.32
2023-01-07T09:50:59.252Z,89.12
2023-01-07T09:53:53.864Z,89.42
2023-01-07T09:56:20.371Z,88.03
2023-01-07T09:58:48.593Z,88.02
2023-01-07T10:01:38.564Z,88.09
2023-01-07T10:04:52.639Z,87.35
2023-01-07T10:07:32.518Z,86.71
2023-01-07T10:10:08.381Z,86.94
2023-01-07T10:13:16.791Z,86.45
2023-01-07T10:16:11.380Z,85.88
2023-01-07T10:18:43.802Z,85.19
2023-01-07T10:21:19.134Z,85.26
2023-01-07T10:23:50.419Z,84.93
2023-01-07T10:26:42.547Z,85.09
2023-01-07T10:29:41.513Z,84.29
2023-01-07T10:32:16.962Z,83.35
2023-01-07T10:34:47.578Z,83.08
2023-01-07T10:37:37.266Z,82.97
2023-01-07T10:40:12.790Z,81.70
2023-01-07T10:42:54.618Z,81.78
2023-01-07T10:45:33.253Z,81.45
2023-01-07T10:48:21.278Z,80.98
2023-01-07T10:51:01.142Z,79.82
2023-01-07T10:53:36.589Z,80.29
2023-01-07T10:56:26.147Z,79.37
2023-01-07T10:58:52.587Z,78.62
2023-01-07T11:01:27.196Z,78.15
2023-01-07T11:03:55.976Z,78.61
2023-01-07T11:06:41.154Z,79.19
2023-01-07T11:09:13.715Z,78.46
2023-01-07T11:11:41.887Z,77.72
2023-01-07T11:14:36.002Z,78.16
2023-01-07T11:17:31.667Z,78.41
2023-01-07T11:19:58.130Z,77.85
2023-01-07T11:22:27.392Z,78.49
2023-01-07T11:24:55.414Z,77.93
2023-01-07T11:27:24.813Z,77.73
2023-01-07T11:30:05.548Z,77.76
2023-01-07T11:32:35.179Z,77.27
2023-01-07T11:35:17.964Z,78.08
2023-01-07T11:37:47.769Z,77.56
2023-01-07T11:40:14.229Z,76.77
2023-01-07T11:43:16.183Z,76.94
2023-01-07T11:46:20.337Z,77.27
2023-01-07T11:48:42.837Z,76.95
2023-01-07T11:51:10.957Z,76.96
2023-01-07T11:53:46.265Z,76.81
2023-01-07T11:56:22.356Z,76.33
2023-01-07T11:59:15.447Z,76.62
2023-01-07T12:01:53.650Z,76.21
2023-01-07T12:04:26.372Z,76.16
2023-01-07T12:06:58.673Z,75.83
2023-01-07T12:09:34.449Z,76.27
2023-01-07T12:12:30.159Z,76.46
2023-01-07T12:14:58.572Z,75.57
2023-01-07T12:17:26.305Z,75.71
2023-01-07T12:20:07.971Z,76.50
2023-01-07T12:22:52.520Z,75.09
2023-01-07T12:25:34.613Z,74.51
2023-01-07T12:28:12.892Z,74.01
2023-01-07T12:31:00.675Z,73.88
2023-01-07T12:34:02.707Z,73.07
2023-01-07T12:36:46.729Z,73.28
2023-01-07T12:39:39.269Z,74.08
2023-01-07T12:42:24.656Z,73.49
2023-01-07T12:44:56.551Z,73.26
2023-01-07T12:47:32.107Z,73.00
2023-01-07T12:50:46.412Z,72.96
2023-01-07T12:53:15.316Z,72.38
2023-01-07T12:55:52.233Z,72.90
2023-01-07T12:58:22.155Z,72.79
2023-01-07T13:00:57.807Z,73.63
2023-01-07T13:03:55.630Z,73.05
2023-01-07T13:06:44.398Z,73.37
2023-01-07T13:09:44.909Z,73.81
2023-01-07T13:12:46.274Z,73.54
2023-01-07T13:15:27.885Z,73.81
2023-01-07T13:18:18.910Z,73.82
2023-01-07T13:21:12.620Z,74.23
2023-01-07T13:24:03.458Z,73.84
2023-01-07T13:26:39.574Z,74.26
2023-01-07T13:29:11.940Z,73.65
2023-01-07T13:32:07.783Z,74.30
2023-01-07T13:35:14.611Z,74.38
2023-01-07T13:37:40.965Z,73.63
2023-01-07T13:40:16.906Z,74.13
2023-01-07T13:42:57.617Z,74.01
2023-01-07T13:45:28.851Z,74.13
2023-01-07T13:47:58.781Z,73.75
2023-01-07T13:50:29.192Z,74.04
2023-01-07T13:52:58.384Z,74.13
2023-01-07T13:55:34.492Z,74.75
2023-01-07T13:58:02.779Z,74.32
2023-01-07T14:00:37.106Z,74.83
2023-01-07T14:03:03.625Z,74.25
2023-01-07T14:05:30.414Z,74.25
2023-01-07T14:08:01.294Z,74.50
2023-01-07T14:10:36.619Z,74.70
2023-01-07T14:13:24.595Z,74.70
2023-01-07T14:16:02.396Z,74.88
2023-01-07T14:18:55.439Z,74.91
2023-01-07T14:21:57.040Z,74.49
2023-01-07T14:24:40.568Z,74.84
2023-01-07T14:27:25.758Z,74.69
2023-01-07T14:29:56.534Z,74.24
2023-01-07T14:32:30.515Z,74.62
2023-01-07T14:34:59.351Z,74.28
2023-01-07T14:37:46.864Z,74.76
2023-01-07T14:40:34.617Z,74.50
2023-01-07T14:43:05.230Z,73.80
2023-01-07T14:45:40.840Z,74.35
2023-01-07T14:48:09.998Z,74.17
2023-01-07T14:51:09.530Z,74.54
2023-01-07T14:53:49.868Z,73.91
2023-01-07T14:56:20.831Z,74.16
2023-01-07T14:59:15.604Z,74.68
2023-01-07T15:01:48.624Z,74.08
2023-01-07T15:04:18.132Z,73.98
2023-01-07T15:06:46.190Z,73.89
2023-01-07T15:09:44.252Z,74.43
2023-01-07T15:12:40.718Z,74.65
2023-01-07T15:15:38.813Z,74.83
2023-01-07T15:18:10.058Z,74.74
2023-01-07T15:21:01.466Z,74.63
2023-01-07T15:23:55.276Z,75.18
2023-01-07T15:26:54.109Z,75.60
2023-01-07T15:29:36.994Z,75.68
2023-01-07T15:32:45.227Z,75.97
2023-01-07T15:35:21.757Z,76.26
2023-01-07T15:37:50.461Z,76.09
2023-01-07T15:40:22.970Z,76.55
2023-01-07T15:42:53.426Z,76.45
2023-01-07T15:45:23.296Z,76.66
2023-01-07T15:47:50.474Z,76.61
2023-01-07T15:50:37.253Z,76.57
2023-01-07T15:53:18.706Z,76.35
2023-01-07T15:56:02.431Z,76.40
2023-01-07T15:58:46.170Z,76.42
2023-01-07T16:01:21.526Z,76.10
2023-01-07T16:03:51.661Z,75.60
2023-01-07T16:06:39.129Z,75.43
2023-01-07T16:09:21.013Z,74.81
2023-01-07T16:11:47.612Z,74.51
2023-01-07T16:14:19.551Z,74.13
2023-01-07T16:16:46.172Z,73.69
2023-01-07T16:19:20.782Z,73.71
2023-01-07T16:21:53.052Z,73.52
2023-01-07T16:24:19.780Z,73.01
2023-01-07T16:26:49.008Z,73.13
2023-01-07T16:29:23.728Z,72.48
2023-01-07T16:31:50.334Z,72.23
2023-01-07T16:34:25.544Z,71.94
2023-01-07T16:37:03.495Z,72.04
2023-01-07T16:39:34.674Z,71.80
2023-01-07T16:42:20.165Z,71.62
2023-01-07T16:44:46.794Z,71.58
2023-01-07T16:47:31.418Z,72.00
2023-01-07T16:49:59.390Z,71.55
2023-01-07T16:52:31.493Z,71.58
2023-01-07T16:54:57.939Z,71.38
2023-01-07T16:57:41.614Z,71.41
2023-01-07T17:00:20.152Z,71.59
2023-01-07T17:02:56.574Z,71.80
2023-01-07T17:05:25.339Z,71.78
2023-01-07T17:08:05.146Z,72.37
2023-01-07T17:10:40.661Z,72.56
2023-01-07T17:13:31.559Z,72.35
2023-01-07T17:16:21.495Z,72.49
2023-01-07T17:18:48.131Z,72.38
2023-01-07T17:21:44.115Z,72.39
2023-01-07T17:24:46.403Z,72.74
2023-01-07T17:27:22.172Z,72.67
2023-01-07T17:29:49.878Z,72.40
2023-01-07T17:32:16.533Z,72.46
2023-01-07T17:34:43.218Z,72.25
2023-01-07T17:37:15.601Z,72.80
2023-01-07T17:39:43.445Z,72.82
2023-01-07T17:42:40.208Z,73.12
2023-01-07T17:45:07.580Z,72.68
2023-01-07T17:47:34.008Z,72.89
2023-01-07T17:50:01.447Z,72.93
2023-01-07T17:52:28.893Z,73.18
2023-01-07T17:54:55.335Z,73.23
2023-01-07T17:57:21.748Z,73.16
2023-01-07T17:59:48.175Z,73.15
2023-01-07T18:02:19.843Z,73.36
2023-01-07T18:04:46.725Z,73.17
2023-01-07T18:07:15.539Z,73.18
2023-01-07T18:09:42.758Z,73.21
2023-01-07T18:12:31.515Z,73.55
2023-01-07T18:15:02.766Z,72.74
2023-01-07T18:17:29.798Z,72.79
2023-01-07T18:19:56.485Z,72.57
2023-01-07T18:22:25.204Z,72.52
2023-01-07T18:24:51.739Z,72.45
2023-01-07T18:27:19.232Z,72.42
2023-01-07T18:29:45.671Z,72.44
2023-01-07T18:32:12.104Z,72.26
2023-01-07T18:34:38.642Z,72.11
2023-01-07T18:37:05.190Z,72.19
2023-01-07T18:39:31.617Z,72.36
2023-01-07T18:41:58.164Z,72.14
2023-01-07T18:44:24.980Z,72.37
2023-01-07T18:46:51.481Z,72.33
2023-01-07T18:49:17.882Z,72.37
2023-01-07T18:51:46.877Z,72.50
2023-01-07T18:54:13.605Z,72.33
2023-01-07T18:56:40.167Z,72.26
2023-01-07T18:59:06.709Z,72.17
2023-01-07T19:01:33.306Z,72.11
2023-01-07T19:03:59.977Z,72.06
2023-01-07T19:06:26.893Z,71.95
2023-01-07T19:08:55.328Z,71.88
2023-01-07T19:11:22.334Z,71.81
2023-01-07T19:13:48.760Z,71.77
2023-01-07T19:16:15.504Z,71.71
2023-01-07T19:18:42.038Z,71.65
2023-01-07T19:21:12.505Z,71.67
2023-01-07T19:23:39.192Z,71.49
2023-01-07T19:26:07.712Z,71.68
2023-01-07T19:28:34.192Z,71.61
2023-01-07T19:31:05.072Z,71.69
2023-01-07T19:33:31.653Z,71.55
2023-01-07T19:36:02.747Z,71.78
2023-01-07T19:38:29.340Z,71.73
2023-01-07T19:40:55.786Z,71.71
2023-01-07T19:43:22.303Z,71.97
2023-01-07T19:45:56.410Z,72.22
2023-01-07T19:48:23.725Z,72.34
2023-01-07T19:50:57.802Z,72.46
2023-01-07T19:53:25.142Z,72.48
2023-01-07T19:55:54.065Z,72.64
2023-01-07T19:58:21.420Z,72.82
2023-01-07T20:00:47.968Z,72.91
2023-01-07T20:03:14.452Z,72.94
2023-01-07T20:05:40.956Z,72.88
2023-01-07T20:08:07.443Z,72.88
2023-01-07T20:10:33.998Z,72.80
2023-01-07T20:13:00.471Z,72.89
2023-01-07T20:15:27.223Z,73.09
2023-01-07T20:17:53.842Z,73.16
2023-01-07T20:20:20.253Z,73.43
2023-01-07T20:22:49.343Z,73.31
2023-01-07T20:25:15.819Z,73.12
2023-01-07T20:27:42.207Z,73.06
2023-01-07T20:30:09.504Z,72.94
2023-01-07T20:32:35.887Z,72.80
2023-01-07T20:35:02.401Z,72.86
2023-01-07T20:37:29.015Z,72.73
2023-01-07T20:39:55.515Z,72.47
2023-01-07T20:42:22.610Z,72.29
2023-01-07T20:44:51.559Z,72.45
2023-01-07T20:47:18.604Z,72.43
2023-01-07T20:49:45.341Z,72.28
2023-01-07T20:52:11.785Z,72.12
2023-01-07T20:54:38.288Z,72.14
2023-01-07T20:57:04.705Z,71.97
2023-01-07T20:59:31.296Z,71.72
2023-01-07T21:01:57.887Z,71.74
2023-01-07T21:04:24.842Z,71.65
2023-01-07T21:06:51.258Z,71.50
2023-01-07T21:09:19.607Z,71.42
2023-01-07T21:11:47.272Z,71.40
2023-01-07T21:14:13.709Z,71.15
2023-01-07T21:16:40.414Z,71.12
2023-01-07T21:19:06.906Z,71.11
2023-01-07T21:21:33.373Z,70.80
2023-01-07T21:23:59.807Z,70.78
2023-01-07T21:26:26.287Z,70.63
2023-01-07T21:28:55.827Z,70.51
2023-01-07T21:31:23.631Z,70.55
2023-01-07T21:33:54.916Z,70.71
2023-01-07T21:36:21.607Z,70.48
2023-01-07T21:38:54.049Z,70.57
2023-01-07T21:41:21.697Z,70.31
2023-01-07T21:43:48.682Z,70.28
2023-01-07T21:46:15.702Z,70.04
2023-01-07T21:48:46.687Z,69.98
2023-01-07T21:51:25.343Z,70.34
2023-01-07T21:53:55.634Z,69.81
2023-01-07T21:56:23.130Z,69.97
2023-01-07T21:58:49.674Z,69.82
2023-01-07T22:01:17.839Z,69.71
2023-01-07T22:03:47.410Z,69.97
2023-01-07T22:06:25.473Z,70.34
2023-01-07T22:08:57.016Z,70.22
2023-01-07T22:11:23.622Z,69.88
2023-01-07T22:13:54.914Z,70.02
2023-01-07T22:16:22.720Z,69.90
2023-01-07T22:18:49.473Z,69.99
2023-01-07T22:21:17.103Z,69.87
2023-01-07T22:23:47.890Z,69.88
2023-01-07T22:26:15.880Z,69.96
2023-01-07T22:28:45.871Z,69.75
2023-01-07T22:31:21.230Z,70.08
2023-01-07T22:33:47.805Z,69.46
2023-01-07T22:36:21.314Z,69.65
2023-01-07T22:38:48.696Z,69.44
2023-01-07T22:41:15.414Z,69.09
2023-01-07T22:43:41.905Z,69.01
2023-01-07T22:46:19.156Z,69.17
2023-01-07T22:48:45.711Z,68.79
2023-01-07T22:51:19.840Z,68.95
2023-01-07T22:53:48.793Z,68.10
2023-01-07T22:56:15.466Z,68.01
2023-01-07T22:58:41.882Z,68.09
2023-01-07T23:01:13.056Z,67.67
2023-01-07T23:03:40.532Z,67.50
2023-01-07T23:06:07.764Z,67.15
2023-01-07T23:08:34.660Z,67.09
2023-01-07T23:11:01.510Z,66.98
2023-01-07T23:13:27.929Z,66.82
2023-01-07T23:15:54.692Z,66.44
2023-01-07T23:18:21.707Z,66.61
2023-01-07T23:20:48.186Z,66.72
2023-01-07T23:23:15.848Z,66.36
2023-01-07T23:25:47.346Z,66.77
2023-01-07T23:28:15.245Z,66.27
2023-01-07T23:30:41.818Z,66.25
2023-01-07T23:33:08.745Z,66.58
2023-01-07T23:35:35.610Z,66.09
2023-01-07T23:38:03.760Z,65.79
2023-01-07T23:40:30.428Z,65.79
2023-01-07T23:42:57.785Z,65.72
2023-01-07T23:45:24.539Z,65.71
2023-01-07T23:47:50.936Z,65.66
2023-01-07T23:50:17.489Z,65.49
2023-01-07T23:52:43.890Z,65.59
2023-01-07T23:55:10.661Z,65.59
2023-01-07T23:57:37.121Z,65.51
